sensor_id;sensor_type;location;lat;lon;timestamp;temperature;humidity
59309;DHT22;48433;53.016;-2.260;2022-12-07T00:01:38;0.60;99.90
59309;DHT22;48433;53.016;-2.260;2022-12-07T00:04:09;0.60;99.90
59309;DHT22;48433;53.016;-2.260;2022-12-07T00:06:43;0.60;99.90
59309;DHT22;48433;53.016;-2.260;2022-12-07T00:09:13;0.50;99.90
59309;DHT22;48433;53.016;-2.260;2022-12-07T00:11:42;0.50;99.90
59309;DHT22;48433;53.016;-2.260;2022-12-07T00:14:15;0.50;99.90
59309;DHT22;48433;53.016;-2.260;2022-12-07T00:16:43;0.50;99.90
59309;DHT22;48433;53.016;-2.260;2022-12-07T00:19:13;0.40;99.90
59309;DHT22;48433;53.016;-2.260;2022-12-07T00:21:41;0.40;99.90
59309;DHT22;48433;53.016;-2.260;2022-12-07T00:24:10;0.40;99.90
59309;DHT22;48433;53.016;-2.260;2022-12-07T00:26:39;0.30;99.90
59309;DHT22;48433;53.016;-2.260;2022-12-07T00:29:20;0.30;99.90
59309;DHT22;48433;53.016;-2.260;2022-12-07T00:31:49;1.20;99.90
59309;DHT22;48433;53.016;-2.260;2022-12-07T00:34:18;0.30;99.90
59309;DHT22;48433;53.016;-2.260;2022-12-07T00:36:46;0.30;99.90
59309;DHT22;48433;53.016;-2.260;2022-12-07T00:39:14;0.30;99.90
59309;DHT22;48433;53.016;-2.260;2022-12-07T00:41:42;0.30;99.90
59309;DHT22;48433;53.016;-2.260;2022-12-07T00:44:09;0.30;99.90
59309;DHT22;48433;53.016;-2.260;2022-12-07T00:46:37;0.30;99.90
59309;DHT22;48433;53.016;-2.260;2022-12-07T00:49:05;0.30;99.90
59309;DHT22;48433;53.016;-2.260;2022-12-07T00:51:32;0.30;99.90
59309;DHT22;48433;53.016;-2.260;2022-12-07T00:54:00;0.30;99.90
59309;DHT22;48433;53.016;-2.260;2022-12-07T00:56:29;0.30;99.90
59309;DHT22;48433;53.016;-2.260;2022-12-07T00:58:58;0.30;99.90
59309;DHT22;48433;53.016;-2.260;2022-12-07T01:01:29;0.30;99.90
59309;DHT22;48433;53.016;-2.260;2022-12-07T01:03:57;0.20;99.90
59309;DHT22;48433;53.016;-2.260;2022-12-07T01:06:25;0.30;99.90
59309;DHT22;48433;53.016;-2.260;2022-12-07T01:08:53;0.30;99.90
59309;DHT22;48433;53.016;-2.260;2022-12-07T01:11:24;0.20;99.90
59309;DHT22;48433;53.016;-2.260;2022-12-07T01:13:53;0.20;99.90
59309;DHT22;48433;53.016;-2.260;2022-12-07T01:16:23;0.20;99.90
59309;DHT22;48433;53.016;-2.260;2022-12-07T01:18:53;0.10;99.90
59309;DHT22;48433;53.016;-2.260;2022-12-07T01:21:26;0.10;99.90
59309;DHT22;48433;53.016;-2.260;2022-12-07T01:23:57;0.00;99.90
59309;DHT22;48433;53.016;-2.260;2022-12-07T01:26:25;0.00;99.90
59309;DHT22;48433;53.016;-2.260;2022-12-07T01:28:54;0.00;99.90
59309;DHT22;48433;53.016;-2.260;2022-12-07T01:31:24;0.00;99.90
59309;DHT22;48433;53.016;-2.260;2022-12-07T01:33:56;0.00;99.90
59309;DHT22;48433;53.016;-2.260;2022-12-07T01:36:31;0.00;99.90
59309;DHT22;48433;53.016;-2.260;2022-12-07T01:39:02;0.00;99.90
59309;DHT22;48433;53.016;-2.260;2022-12-07T01:41:34;0.00;99.90
59309;DHT22;48433;53.016;-2.260;2022-12-07T01:44:27;-0.10;99.90
59309;DHT22;48433;53.016;-2.260;2022-12-07T01:46:59;-0.10;99.90
59309;DHT22;48433;53.016;-2.260;2022-12-07T01:49:31;-0.10;99.90
59309;DHT22;48433;53.016;-2.260;2022-12-07T01:52:15;-0.10;99.90
59309;DHT22;48433;53.016;-2.260;2022-12-07T01:54:44;-0.10;99.90
59309;DHT22;48433;53.016;-2.260;2022-12-07T01:57:14;-0.10;99.90
59309;DHT22;48433;53.016;-2.260;2022-12-07T01:59:45;-0.10;99.90
59309;DHT22;48433;53.016;-2.260;2022-12-07T02:02:34;-0.10;99.90
59309;DHT22;48433;53.016;-2.260;2022-12-07T02:05:04;-0.10;99.90
59309;DHT22;48433;53.016;-2.260;2022-12-07T02:07:34;-0.10;99.90
59309;DHT22;48433;53.016;-2.260;2022-12-07T02:10:13;-0.10;99.90
59309;DHT22;48433;53.016;-2.260;2022-12-07T02:12:41;-0.20;99.90
59309;DHT22;48433;53.016;-2.260;2022-12-07T02:15:11;-0.20;99.90
59309;DHT22;48433;53.016;-2.260;2022-12-07T02:20:30;-0.30;99.90
59309;DHT22;48433;53.016;-2.260;2022-12-07T02:30:50;-0.40;99.90
59309;DHT22;48433;53.016;-2.260;2022-12-07T02:33:28;-0.40;99.90
59309;DHT22;48433;53.016;-2.260;2022-12-07T02:36:08;-0.40;99.90
59309;DHT22;48433;53.016;-2.260;2022-12-07T02:39:00;-0.40;99.90
59309;DHT22;48433;53.016;-2.260;2022-12-07T02:41:36;-0.50;99.90
59309;DHT22;48433;53.016;-2.260;2022-12-07T02:44:09;-0.50;99.90
59309;DHT22;48433;53.016;-2.260;2022-12-07T02:46:42;-0.50;99.90
59309;DHT22;48433;53.016;-2.260;2022-12-07T02:49:10;-0.50;99.90
59309;DHT22;48433;53.016;-2.260;2022-12-07T02:51:40;-0.50;99.90
59309;DHT22;48433;53.016;-2.260;2022-12-07T02:54:16;-0.50;99.90
59309;DHT22;48433;53.016;-2.260;2022-12-07T03:04:57;-0.60;99.90
59309;DHT22;48433;53.016;-2.260;2022-12-07T03:18:28;-0.50;99.90
59309;DHT22;48433;53.016;-2.260;2022-12-07T03:21:00;-0.60;99.90
59309;DHT22;48433;53.016;-2.260;2022-12-07T03:23:31;-0.60;99.90
59309;DHT22;48433;53.016;-2.260;2022-12-07T03:26:00;-0.50;99.90
59309;DHT22;48433;53.016;-2.260;2022-12-07T03:31:22;-0.70;99.90
59309;DHT22;48433;53.016;-2.260;2022-12-07T03:34:38;-0.80;99.90
59309;DHT22;48433;53.016;-2.260;2022-12-07T03:36:47;-0.80;99.90
59309;DHT22;48433;53.016;-2.260;2022-12-07T03:42:00;-0.90;99.90
59309;DHT22;48433;53.016;-2.260;2022-12-07T03:44:31;-0.90;99.90
59309;DHT22;48433;53.016;-2.260;2022-12-07T03:49:52;-0.90;99.90
59309;DHT22;48433;53.016;-2.260;2022-12-07T03:57:51;-0.90;99.90
59309;DHT22;48433;53.016;-2.260;2022-12-07T04:00:21;-1.00;99.90
59309;DHT22;48433;53.016;-2.260;2022-12-07T04:02:52;-1.00;99.90
59309;DHT22;48433;53.016;-2.260;2022-12-07T04:05:20;-1.00;99.90
59309;DHT22;48433;53.016;-2.260;2022-12-07T04:07:48;-0.90;99.90
59309;DHT22;48433;53.016;-2.260;2022-12-07T04:10:16;-1.00;99.90
59309;DHT22;48433;53.016;-2.260;2022-12-07T04:12:43;-1.00;99.90
59309;DHT22;48433;53.016;-2.260;2022-12-07T04:15:11;-1.00;99.90
59309;DHT22;48433;53.016;-2.260;2022-12-07T04:17:39;-1.00;99.90
59309;DHT22;48433;53.016;-2.260;2022-12-07T04:20:07;-1.00;99.90
59309;DHT22;48433;53.016;-2.260;2022-12-07T04:22:35;-1.00;99.90
59309;DHT22;48433;53.016;-2.260;2022-12-07T04:25:03;-1.00;99.90
59309;DHT22;48433;53.016;-2.260;2022-12-07T04:27:31;-0.90;99.90
59309;DHT22;48433;53.016;-2.260;2022-12-07T04:29:59;-0.90;99.90
59309;DHT22;48433;53.016;-2.260;2022-12-07T04:32:27;-0.90;99.90
59309;DHT22;48433;53.016;-2.260;2022-12-07T04:34:55;-0.90;99.90
59309;DHT22;48433;53.016;-2.260;2022-12-07T04:37:23;-0.90;99.90
59309;DHT22;48433;53.016;-2.260;2022-12-07T04:39:51;-0.90;99.90
59309;DHT22;48433;53.016;-2.260;2022-12-07T04:42:19;-0.90;99.90
59309;DHT22;48433;53.016;-2.260;2022-12-07T04:44:46;-0.90;99.90
59309;DHT22;48433;53.016;-2.260;2022-12-07T04:47:14;-1.00;99.90
59309;DHT22;48433;53.016;-2.260;2022-12-07T04:49:41;-1.00;99.90
59309;DHT22;48433;53.016;-2.260;2022-12-07T04:52:09;-0.90;99.90
59309;DHT22;48433;53.016;-2.260;2022-12-07T04:54:37;-0.90;99.90
59309;DHT22;48433;53.016;-2.260;2022-12-07T04:59:32;-1.00;99.90
59309;DHT22;48433;53.016;-2.260;2022-12-07T05:02:00;-1.10;99.90
59309;DHT22;48433;53.016;-2.260;2022-12-07T05:04:27;-1.00;99.90
59309;DHT22;48433;53.016;-2.260;2022-12-07T05:06:55;-1.10;99.90
59309;DHT22;48433;53.016;-2.260;2022-12-07T05:09:23;-1.10;99.90
59309;DHT22;48433;53.016;-2.260;2022-12-07T05:11:50;-1.10;99.90
59309;DHT22;48433;53.016;-2.260;2022-12-07T05:14:19;-1.10;99.90
59309;DHT22;48433;53.016;-2.260;2022-12-07T05:16:49;-1.10;99.90
59309;DHT22;48433;53.016;-2.260;2022-12-07T05:19:18;-0.50;99.90
59309;DHT22;48433;53.016;-2.260;2022-12-07T05:21:47;-1.10;99.90
59309;DHT22;48433;53.016;-2.260;2022-12-07T05:24:16;-1.10;99.90
59309;DHT22;48433;53.016;-2.260;2022-12-07T05:26:44;-1.10;99.90
59309;DHT22;48433;53.016;-2.260;2022-12-07T05:29:16;-1.10;99.90
59309;DHT22;48433;53.016;-2.260;2022-12-07T05:31:44;-1.20;99.90
59309;DHT22;48433;53.016;-2.260;2022-12-07T05:34:13;-1.20;99.90
59309;DHT22;48433;53.016;-2.260;2022-12-07T05:36:40;-1.30;99.90
59309;DHT22;48433;53.016;-2.260;2022-12-07T05:39:08;-1.30;99.90
59309;DHT22;48433;53.016;-2.260;2022-12-07T05:41:36;-1.30;99.90
59309;DHT22;48433;53.016;-2.260;2022-12-07T05:44:22;-1.30;99.90
59309;DHT22;48433;53.016;-2.260;2022-12-07T05:46:49;-1.20;99.90
59309;DHT22;48433;53.016;-2.260;2022-12-07T05:49:17;-1.10;99.90
59309;DHT22;48433;53.016;-2.260;2022-12-07T05:51:45;-1.00;99.90
59309;DHT22;48433;53.016;-2.260;2022-12-07T05:54:12;-1.00;99.90
59309;DHT22;48433;53.016;-2.260;2022-12-07T05:56:40;-1.00;99.90
59309;DHT22;48433;53.016;-2.260;2022-12-07T05:59:08;-0.90;99.90
59309;DHT22;48433;53.016;-2.260;2022-12-07T06:01:53;-0.90;99.90
59309;DHT22;48433;53.016;-2.260;2022-12-07T06:04:21;-0.90;99.90
59309;DHT22;48433;53.016;-2.260;2022-12-07T06:06:49;-0.80;99.90
59309;DHT22;48433;53.016;-2.260;2022-12-07T06:09:18;-0.90;99.90
59309;DHT22;48433;53.016;-2.260;2022-12-07T06:11:46;-0.90;99.90
59309;DHT22;48433;53.016;-2.260;2022-12-07T06:14:32;-0.90;99.90
59309;DHT22;48433;53.016;-2.260;2022-12-07T06:17:00;-0.90;99.90
59309;DHT22;48433;53.016;-2.260;2022-12-07T06:19:28;-0.90;99.90
59309;DHT22;48433;53.016;-2.260;2022-12-07T06:21:56;-0.90;99.90
59309;DHT22;48433;53.016;-2.260;2022-12-07T06:24:24;-0.90;99.90
59309;DHT22;48433;53.016;-2.260;2022-12-07T06:26:52;-1.00;99.90
59309;DHT22;48433;53.016;-2.260;2022-12-07T06:29:20;-0.90;99.90
59309;DHT22;48433;53.016;-2.260;2022-12-07T06:31:48;-1.00;99.90
59309;DHT22;48433;53.016;-2.260;2022-12-07T06:34:18;-1.00;99.90
59309;DHT22;48433;53.016;-2.260;2022-12-07T06:36:46;-1.10;99.90
59309;DHT22;48433;53.016;-2.260;2022-12-07T06:39:19;-1.10;99.90
59309;DHT22;48433;53.016;-2.260;2022-12-07T06:41:47;-1.20;99.90
59309;DHT22;48433;53.016;-2.260;2022-12-07T06:44:15;-1.30;99.90
59309;DHT22;48433;53.016;-2.260;2022-12-07T06:46:43;-1.30;99.90
59309;DHT22;48433;53.016;-2.260;2022-12-07T06:49:11;-1.50;99.90
59309;DHT22;48433;53.016;-2.260;2022-12-07T06:51:39;-1.50;99.90
59309;DHT22;48433;53.016;-2.260;2022-12-07T06:54:13;-1.50;99.90
59309;DHT22;48433;53.016;-2.260;2022-12-07T06:56:41;-1.50;99.90
59309;DHT22;48433;53.016;-2.260;2022-12-07T06:59:09;-1.50;99.90
59309;DHT22;48433;53.016;-2.260;2022-12-07T07:01:37;-1.50;99.90
59309;DHT22;48433;53.016;-2.260;2022-12-07T07:04:09;-1.50;99.90
59309;DHT22;48433;53.016;-2.260;2022-12-07T07:06:37;-1.50;99.90
59309;DHT22;48433;53.016;-2.260;2022-12-07T07:09:04;-1.50;99.90
59309;DHT22;48433;53.016;-2.260;2022-12-07T07:11:32;-1.50;99.90
59309;DHT22;48433;53.016;-2.260;2022-12-07T07:14:00;-1.50;99.90
59309;DHT22;48433;53.016;-2.260;2022-12-07T07:16:30;-1.50;99.90
59309;DHT22;48433;53.016;-2.260;2022-12-07T07:18:58;-1.50;99.90
59309;DHT22;48433;53.016;-2.260;2022-12-07T07:21:26;-1.60;99.90
59309;DHT22;48433;53.016;-2.260;2022-12-07T07:23:53;-1.60;99.90
59309;DHT22;48433;53.016;-2.260;2022-12-07T07:26:21;-1.50;99.90
59309;DHT22;48433;53.016;-2.260;2022-12-07T07:28:49;-1.50;99.90
59309;DHT22;48433;53.016;-2.260;2022-12-07T07:31:17;-1.60;99.90
59309;DHT22;48433;53.016;-2.260;2022-12-07T07:33:46;-1.60;99.90
59309;DHT22;48433;53.016;-2.260;2022-12-07T07:36:14;-1.60;99.90
59309;DHT22;48433;53.016;-2.260;2022-12-07T07:38:42;-1.60;99.90
59309;DHT22;48433;53.016;-2.260;2022-12-07T07:41:09;-1.60;99.90
59309;DHT22;48433;53.016;-2.260;2022-12-07T07:43:37;-1.60;99.90
59309;DHT22;48433;53.016;-2.260;2022-12-07T07:46:04;-1.70;99.90
59309;DHT22;48433;53.016;-2.260;2022-12-07T07:48:32;-1.70;99.90
59309;DHT22;48433;53.016;-2.260;2022-12-07T07:51:00;-1.70;99.90
59309;DHT22;48433;53.016;-2.260;2022-12-07T07:53:27;-1.70;99.90
59309;DHT22;48433;53.016;-2.260;2022-12-07T07:55:55;-1.80;99.90
59309;DHT22;48433;53.016;-2.260;2022-12-07T07:58:22;-1.80;99.90
59309;DHT22;48433;53.016;-2.260;2022-12-07T08:00:50;-1.80;99.90
59309;DHT22;48433;53.016;-2.260;2022-12-07T08:03:18;-1.80;99.90
59309;DHT22;48433;53.016;-2.260;2022-12-07T08:05:45;-1.80;99.90
59309;DHT22;48433;53.016;-2.260;2022-12-07T08:08:13;-1.80;99.90
59309;DHT22;48433;53.016;-2.260;2022-12-07T08:10:40;-1.70;99.90
59309;DHT22;48433;53.016;-2.260;2022-12-07T08:13:08;-1.80;99.90
59309;DHT22;48433;53.016;-2.260;2022-12-07T08:15:40;-1.70;99.90
59309;DHT22;48433;53.016;-2.260;2022-12-07T08:18:08;-1.80;99.90
59309;DHT22;48433;53.016;-2.260;2022-12-07T08:20:37;-1.70;99.90
59309;DHT22;48433;53.016;-2.260;2022-12-07T08:23:05;-1.70;99.90
59309;DHT22;48433;53.016;-2.260;2022-12-07T08:28:02;-1.50;99.90
59309;DHT22;48433;53.016;-2.260;2022-12-07T08:30:30;-1.50;99.90
59309;DHT22;48433;53.016;-2.260;2022-12-07T08:32:58;-1.30;99.90
59309;DHT22;48433;53.016;-2.260;2022-12-07T08:35:25;-1.30;99.90
59309;DHT22;48433;53.016;-2.260;2022-12-07T08:37:53;-1.00;99.90
59309;DHT22;48433;53.016;-2.260;2022-12-07T08:40:21;-0.80;99.90
59309;DHT22;48433;53.016;-2.260;2022-12-07T08:42:49;-0.40;99.90
59309;DHT22;48433;53.016;-2.260;2022-12-07T08:45:18;-0.10;99.90
59309;DHT22;48433;53.016;-2.260;2022-12-07T08:47:57;-0.10;99.90
59309;DHT22;48433;53.016;-2.260;2022-12-07T08:50:26;0.20;99.90
59309;DHT22;48433;53.016;-2.260;2022-12-07T08:52:56;0.60;99.90
59309;DHT22;48433;53.016;-2.260;2022-12-07T08:55:24;0.80;99.90
59309;DHT22;48433;53.016;-2.260;2022-12-07T08:57:52;1.30;99.90
59309;DHT22;48433;53.016;-2.260;2022-12-07T09:00:20;1.70;99.90
59309;DHT22;48433;53.016;-2.260;2022-12-07T09:02:48;2.30;99.90
59309;DHT22;48433;53.016;-2.260;2022-12-07T09:05:15;2.40;99.90
59309;DHT22;48433;53.016;-2.260;2022-12-07T09:07:47;2.50;99.90
59309;DHT22;48433;53.016;-2.260;2022-12-07T09:10:17;2.80;99.90
59309;DHT22;48433;53.016;-2.260;2022-12-07T09:12:45;3.60;99.90
59309;DHT22;48433;53.016;-2.260;2022-12-07T09:15:12;3.80;99.90
59309;DHT22;48433;53.016;-2.260;2022-12-07T09:17:40;4.20;99.90
59309;DHT22;48433;53.016;-2.260;2022-12-07T09:20:08;4.50;99.90
59309;DHT22;48433;53.016;-2.260;2022-12-07T09:22:35;4.60;99.90
59309;DHT22;48433;53.016;-2.260;2022-12-07T09:25:03;4.50;99.90
59309;DHT22;48433;53.016;-2.260;2022-12-07T09:27:31;4.10;99.90
59309;DHT22;48433;53.016;-2.260;2022-12-07T09:29:59;3.40;99.90
59309;DHT22;48433;53.016;-2.260;2022-12-07T09:32:27;3.00;99.90
59309;DHT22;48433;53.016;-2.260;2022-12-07T09:34:55;2.80;99.90
59309;DHT22;48433;53.016;-2.260;2022-12-07T09:37:23;2.50;99.90
59309;DHT22;48433;53.016;-2.260;2022-12-07T09:39:51;2.30;99.90
59309;DHT22;48433;53.016;-2.260;2022-12-07T09:42:28;2.00;99.90
59309;DHT22;48433;53.016;-2.260;2022-12-07T09:44:58;2.00;99.90
59309;DHT22;48433;53.016;-2.260;2022-12-07T09:47:27;2.00;99.90
59309;DHT22;48433;53.016;-2.260;2022-12-07T09:50:06;2.10;99.90
59309;DHT22;48433;53.016;-2.260;2022-12-07T09:52:35;2.30;99.90
59309;DHT22;48433;53.016;-2.260;2022-12-07T09:55:35;2.50;99.90
59309;DHT22;48433;53.016;-2.260;2022-12-07T09:58:03;3.30;99.90
59309;DHT22;48433;53.016;-2.260;2022-12-07T10:00:31;5.20;99.90
59309;DHT22;48433;53.016;-2.260;2022-12-07T10:03:01;5.60;99.90
59309;DHT22;48433;53.016;-2.260;2022-12-07T10:05:34;6.30;99.90
59309;DHT22;48433;53.016;-2.260;2022-12-07T10:08:03;7.30;99.90
59309;DHT22;48433;53.016;-2.260;2022-12-07T10:10:32;8.20;99.90
59309;DHT22;48433;53.016;-2.260;2022-12-07T10:13:10;9.00;99.90
59309;DHT22;48433;53.016;-2.260;2022-12-07T10:15:56;9.30;99.90
59309;DHT22;48433;53.016;-2.260;2022-12-07T10:18:38;9.70;99.90
59309;DHT22;48433;53.016;-2.260;2022-12-07T10:21:15;10.20;99.90
59309;DHT22;48433;53.016;-2.260;2022-12-07T10:24:08;10.70;99.90
59309;DHT22;48433;53.016;-2.260;2022-12-07T10:29:37;11.10;99.90
59309;DHT22;48433;53.016;-2.260;2022-12-07T10:34:57;11.10;99.90
59309;DHT22;48433;53.016;-2.260;2022-12-07T10:37:40;11.30;99.90
59309;DHT22;48433;53.016;-2.260;2022-12-07T10:40:35;11.70;99.90
59309;DHT22;48433;53.016;-2.260;2022-12-07T10:48:56;12.90;99.90
59309;DHT22;48433;53.016;-2.260;2022-12-07T10:52:30;13.90;99.90
59309;DHT22;48433;53.016;-2.260;2022-12-07T10:57:56;14.40;99.90
59309;DHT22;48433;53.016;-2.260;2022-12-07T11:00:37;14.80;99.90
59309;DHT22;48433;53.016;-2.260;2022-12-07T11:06:21;15.40;96.90
59309;DHT22;48433;53.016;-2.260;2022-12-07T11:11:38;14.90;90.00
59309;DHT22;48433;53.016;-2.260;2022-12-07T11:14:21;14.90;90.00
59309;DHT22;48433;53.016;-2.260;2022-12-07T11:16:56;14.70;91.10
59309;DHT22;48433;53.016;-2.260;2022-12-07T11:22:26;15.00;87.80
59309;DHT22;48433;53.016;-2.260;2022-12-07T11:33:44;15.90;80.20
59309;DHT22;48433;53.016;-2.260;2022-12-07T11:36:41;15.90;79.20
59309;DHT22;48433;53.016;-2.260;2022-12-07T11:39:20;15.80;78.80
59309;DHT22;48433;53.016;-2.260;2022-12-07T11:41:55;15.70;77.80
59309;DHT22;48433;53.016;-2.260;2022-12-07T11:44:48;15.80;79.70
59309;DHT22;48433;53.016;-2.260;2022-12-07T11:56:00;15.40;72.40
59309;DHT22;48433;53.016;-2.260;2022-12-07T12:06:38;15.30;70.70
59309;DHT22;48433;53.016;-2.260;2022-12-07T12:21:08;14.70;67.20
59309;DHT22;48433;53.016;-2.260;2022-12-07T12:26:21;14.60;66.20
59309;DHT22;48433;53.016;-2.260;2022-12-07T12:31:31;14.40;67.50
59309;DHT22;48433;53.016;-2.260;2022-12-07T12:34:01;14.70;68.10
59309;DHT22;48433;53.016;-2.260;2022-12-07T12:36:59;15.00;67.30
59309;DHT22;48433;53.016;-2.260;2022-12-07T12:39:27;15.10;62.80
59309;DHT22;48433;53.016;-2.260;2022-12-07T12:41:56;14.90;62.60
59309;DHT22;48433;53.016;-2.260;2022-12-07T12:47:00;14.90;64.00
59309;DHT22;48433;53.016;-2.260;2022-12-07T12:51:57;15.10;62.00
59309;DHT22;48433;53.016;-2.260;2022-12-07T12:54:32;15.10;63.50
59309;DHT22;48433;53.016;-2.260;2022-12-07T13:02:30;15.60;59.10
59309;DHT22;48433;53.016;-2.260;2022-12-07T13:13:00;15.40;58.00
59309;DHT22;48433;53.016;-2.260;2022-12-07T13:15:39;15.40;59.30
59309;DHT22;48433;53.016;-2.260;2022-12-07T13:21:00;15.60;59.40
59309;DHT22;48433;53.016;-2.260;2022-12-07T13:23:32;15.70;57.90
59309;DHT22;48433;53.016;-2.260;2022-12-07T13:28:37;15.60;57.70
59309;DHT22;48433;53.016;-2.260;2022-12-07T13:31:30;15.40;57.60
59309;DHT22;48433;53.016;-2.260;2022-12-07T13:33:58;15.10;57.00
59309;DHT22;48433;53.016;-2.260;2022-12-07T13:36:48;14.90;57.70
59309;DHT22;48433;53.016;-2.260;2022-12-07T13:39:19;14.70;57.70
59309;DHT22;48433;53.016;-2.260;2022-12-07T13:41:51;14.60;57.60
59309;DHT22;48433;53.016;-2.260;2022-12-07T13:44:19;14.60;58.30
59309;DHT22;48433;53.016;-2.260;2022-12-07T13:49:26;14.20;58.40
59309;DHT22;48433;53.016;-2.260;2022-12-07T13:52:06;14.20;58.90
59309;DHT22;48433;53.016;-2.260;2022-12-07T13:54:44;14.20;59.70
59309;DHT22;48433;53.016;-2.260;2022-12-07T13:57:12;14.30;59.50
59309;DHT22;48433;53.016;-2.260;2022-12-07T13:59:40;14.40;58.80
59309;DHT22;48433;53.016;-2.260;2022-12-07T14:02:25;14.50;58.00
59309;DHT22;48433;53.016;-2.260;2022-12-07T14:10:52;14.30;59.20
59309;DHT22;48433;53.016;-2.260;2022-12-07T14:14:10;14.30;58.20
59309;DHT22;48433;53.016;-2.260;2022-12-07T14:16:35;14.20;59.00
59309;DHT22;48433;53.016;-2.260;2022-12-07T14:19:06;14.00;59.60
59309;DHT22;48433;53.016;-2.260;2022-12-07T14:22:06;13.90;59.30
59309;DHT22;48433;53.016;-2.260;2022-12-07T14:24:44;14.00;60.10
59309;DHT22;48433;53.016;-2.260;2022-12-07T14:27:23;14.00;60.10
59309;DHT22;48433;53.016;-2.260;2022-12-07T14:29:57;14.00;60.20
59309;DHT22;48433;53.016;-2.260;2022-12-07T14:32:27;13.90;59.80
59309;DHT22;48433;53.016;-2.260;2022-12-07T14:35:00;13.90;60.80
59309;DHT22;48433;53.016;-2.260;2022-12-07T14:37:30;13.90;60.60
59309;DHT22;48433;53.016;-2.260;2022-12-07T14:39:57;13.80;61.20
59309;DHT22;48433;53.016;-2.260;2022-12-07T14:42:28;13.80;60.50
59309;DHT22;48433;53.016;-2.260;2022-12-07T14:44:57;13.80;61.40
59309;DHT22;48433;53.016;-2.260;2022-12-07T14:47:25;13.60;61.00
59309;DHT22;48433;53.016;-2.260;2022-12-07T14:50:16;13.50;61.90
59309;DHT22;48433;53.016;-2.260;2022-12-07T14:53:00;13.30;61.80
59309;DHT22;48433;53.016;-2.260;2022-12-07T14:55:48;13.20;62.60
59309;DHT22;48433;53.016;-2.260;2022-12-07T14:58:17;13.00;63.00
59309;DHT22;48433;53.016;-2.260;2022-12-07T15:00:45;12.90;63.70
59309;DHT22;48433;53.016;-2.260;2022-12-07T15:03:12;12.80;63.40
59309;DHT22;48433;53.016;-2.260;2022-12-07T15:05:41;12.60;64.50
59309;DHT22;48433;53.016;-2.260;2022-12-07T15:08:12;12.50;65.00
59309;DHT22;48433;53.016;-2.260;2022-12-07T15:10:40;12.50;65.10
59309;DHT22;48433;53.016;-2.260;2022-12-07T15:13:07;12.30;65.30
59309;DHT22;48433;53.016;-2.260;2022-12-07T15:15:54;11.90;66.00
59309;DHT22;48433;53.016;-2.260;2022-12-07T15:18:23;11.90;66.70
59309;DHT22;48433;53.016;-2.260;2022-12-07T15:20:51;11.50;66.70
59309;DHT22;48433;53.016;-2.260;2022-12-07T15:23:19;10.40;67.20
59309;DHT22;48433;53.016;-2.260;2022-12-07T15:25:48;9.60;69.10
59309;DHT22;48433;53.016;-2.260;2022-12-07T15:28:16;7.80;74.00
59309;DHT22;48433;53.016;-2.260;2022-12-07T15:30:44;7.70;75.60
59309;DHT22;48433;53.016;-2.260;2022-12-07T15:33:13;6.40;83.90
59309;DHT22;48433;53.016;-2.260;2022-12-07T15:35:44;6.30;84.90
59309;DHT22;48433;53.016;-2.260;2022-12-07T15:38:12;5.90;90.20
59309;DHT22;48433;53.016;-2.260;2022-12-07T15:40:40;5.40;92.30
59309;DHT22;48433;53.016;-2.260;2022-12-07T15:43:10;5.00;95.20
59309;DHT22;48433;53.016;-2.260;2022-12-07T15:45:58;4.50;98.20
59309;DHT22;48433;53.016;-2.260;2022-12-07T15:48:26;4.40;99.90
59309;DHT22;48433;53.016;-2.260;2022-12-07T15:51:06;4.30;99.90
59309;DHT22;48433;53.016;-2.260;2022-12-07T15:53:35;3.90;99.90
59309;DHT22;48433;53.016;-2.260;2022-12-07T15:56:07;3.70;99.90
59309;DHT22;48433;53.016;-2.260;2022-12-07T15:58:35;3.60;99.90
59309;DHT22;48433;53.016;-2.260;2022-12-07T16:01:11;3.50;99.90
59309;DHT22;48433;53.016;-2.260;2022-12-07T16:03:39;3.40;99.90
59309;DHT22;48433;53.016;-2.260;2022-12-07T16:06:06;3.30;99.90
59309;DHT22;48433;53.016;-2.260;2022-12-07T16:08:34;2.90;99.90
59309;DHT22;48433;53.016;-2.260;2022-12-07T16:11:06;2.90;99.90
59309;DHT22;48433;53.016;-2.260;2022-12-07T16:13:34;2.70;99.90
59309;DHT22;48433;53.016;-2.260;2022-12-07T16:16:07;2.60;99.90
59309;DHT22;48433;53.016;-2.260;2022-12-07T16:18:35;2.40;99.90
59309;DHT22;48433;53.016;-2.260;2022-12-07T16:21:03;2.30;99.90
59309;DHT22;48433;53.016;-2.260;2022-12-07T16:23:31;2.30;99.90
59309;DHT22;48433;53.016;-2.260;2022-12-07T16:26:13;2.20;99.90
59309;DHT22;48433;53.016;-2.260;2022-12-07T16:28:41;2.20;99.90
59309;DHT22;48433;53.016;-2.260;2022-12-07T16:31:14;2.10;99.90
59309;DHT22;48433;53.016;-2.260;2022-12-07T16:33:43;2.10;99.90
59309;DHT22;48433;53.016;-2.260;2022-12-07T16:36:12;2.10;99.90
59309;DHT22;48433;53.016;-2.260;2022-12-07T16:38:40;2.10;99.90
59309;DHT22;48433;53.016;-2.260;2022-12-07T16:41:11;2.00;99.90
59309;DHT22;48433;53.016;-2.260;2022-12-07T16:43:39;1.90;99.90
59309;DHT22;48433;53.016;-2.260;2022-12-07T16:46:07;1.80;99.90
59309;DHT22;48433;53.016;-2.260;2022-12-07T16:48:39;2.10;99.90
59309;DHT22;48433;53.016;-2.260;2022-12-07T16:51:09;1.70;99.90
59309;DHT22;48433;53.016;-2.260;2022-12-07T16:53:38;1.60;99.90
59309;DHT22;48433;53.016;-2.260;2022-12-07T16:56:15;1.60;99.90
59309;DHT22;48433;53.016;-2.260;2022-12-07T16:58:43;1.50;99.90
59309;DHT22;48433;53.016;-2.260;2022-12-07T17:01:19;1.40;99.90
59309;DHT22;48433;53.016;-2.260;2022-12-07T17:03:47;1.40;99.90
59309;DHT22;48433;53.016;-2.260;2022-12-07T17:06:20;1.30;99.90
59309;DHT22;48433;53.016;-2.260;2022-12-07T17:08:49;1.30;99.90
59309;DHT22;48433;53.016;-2.260;2022-12-07T17:13:46;1.00;99.90
59309;DHT22;48433;53.016;-2.260;2022-12-07T17:16:33;0.90;99.90
59309;DHT22;48433;53.016;-2.260;2022-12-07T17:19:12;0.90;99.90
59309;DHT22;48433;53.016;-2.260;2022-12-07T17:21:40;0.80;99.90
59309;DHT22;48433;53.016;-2.260;2022-12-07T17:24:10;0.80;99.90
59309;DHT22;48433;53.016;-2.260;2022-12-07T17:26:38;0.70;99.90
59309;DHT22;48433;53.016;-2.260;2022-12-07T17:29:07;0.70;99.90
59309;DHT22;48433;53.016;-2.260;2022-12-07T17:31:36;0.70;99.90
59309;DHT22;48433;53.016;-2.260;2022-12-07T17:34:07;0.70;99.90
59309;DHT22;48433;53.016;-2.260;2022-12-07T17:36:36;0.70;99.90
59309;DHT22;48433;53.016;-2.260;2022-12-07T17:39:08;0.70;99.90
59309;DHT22;48433;53.016;-2.260;2022-12-07T17:41:37;0.70;99.90
59309;DHT22;48433;53.016;-2.260;2022-12-07T17:44:23;0.70;99.90
59309;DHT22;48433;53.016;-2.260;2022-12-07T17:46:52;0.60;99.90
59309;DHT22;48433;53.016;-2.260;2022-12-07T17:49:25;0.60;99.90
59309;DHT22;48433;53.016;-2.260;2022-12-07T17:51:54;0.60;99.90
59309;DHT22;48433;53.016;-2.260;2022-12-07T17:54:40;0.60;99.90
59309;DHT22;48433;53.016;-2.260;2022-12-07T17:57:08;0.60;99.90
59309;DHT22;48433;53.016;-2.260;2022-12-07T17:59:36;0.60;99.90
59309;DHT22;48433;53.016;-2.260;2022-12-07T18:02:04;0.60;99.90
59309;DHT22;48433;53.016;-2.260;2022-12-07T18:04:32;0.60;99.90
59309;DHT22;48433;53.016;-2.260;2022-12-07T18:07:00;0.60;99.90
59309;DHT22;48433;53.016;-2.260;2022-12-07T18:09:27;0.60;99.90
59309;DHT22;48433;53.016;-2.260;2022-12-07T18:11:55;0.40;99.90
59309;DHT22;48433;53.016;-2.260;2022-12-07T18:14:23;0.30;99.90
59309;DHT22;48433;53.016;-2.260;2022-12-07T18:16:50;0.20;99.90
59309;DHT22;48433;53.016;-2.260;2022-12-07T18:21:46;0.10;99.90